sensor_id;sensor_type;location;lat;lon;timestamp;P1;durP1;ratioP1;P2;durP2;ratioP2
35530;SDS011;21637;53.352;-6.356;2023-03-21T00:00:22;1.38;;;0.63;;
35530;SDS011;21637;53.352;-6.356;2023-03-21T00:02:48;0.60;;;0.57;;
35530;SDS011;21637;53.352;-6.356;2023-03-21T00:05:14;1.75;;;0.40;;
35530;SDS011;21637;53.352;-6.356;2023-03-21T00:07:40;1.38;;;0.40;;
35530;SDS011;21637;53.352;-6.356;2023-03-21T00:10:06;1.45;;;0.60;;
35530;SDS011;21637;53.352;-6.356;2023-03-21T00:12:32;1.08;;;0.50;;
35530;SDS011;21637;53.352;-6.356;2023-03-21T00:15:05;1.10;;;0.60;;
35530;SDS011;21637;53.352;-6.356;2023-03-21T00:17:32;1.73;;;0.55;;
35530;SDS011;21637;53.352;-6.356;2023-03-21T00:19:58;1.83;;;1.00;;
35530;SDS011;21637;53.352;-6.356;2023-03-21T00:22:25;1.35;;;0.40;;
35530;SDS011;21637;53.352;-6.356;2023-03-21T00:24:52;2.90;;;0.60;;
35530;SDS011;21637;53.352;-6.356;2023-03-21T00:27:19;1.33;;;0.32;;
35530;SDS011;21637;53.352;-6.356;2023-03-21T00:29:45;2.40;;;0.45;;
35530;SDS011;21637;53.352;-6.356;2023-03-21T00:32:13;2.53;;;0.63;;
35530;SDS011;21637;53.352;-6.356;2023-03-21T00:34:40;2.38;;;0.60;;
35530;SDS011;21637;53.352;-6.356;2023-03-21T00:37:07;3.72;;;0.70;;
35530;SDS011;21637;53.352;-6.356;2023-03-21T00:39:33;1.15;;;0.57;;
35530;SDS011;21637;53.352;-6.356;2023-03-21T00:42:00;2.55;;;0.93;;
35530;SDS011;21637;53.352;-6.356;2023-03-21T00:44:25;1.05;;;0.43;;
35530;SDS011;21637;53.352;-6.356;2023-03-21T00:46:51;1.80;;;0.50;;
35530;SDS011;21637;53.352;-6.356;2023-03-21T00:49:17;3.67;;;0.70;;
35530;SDS011;21637;53.352;-6.356;2023-03-21T00:51:46;1.83;;;0.65;;
35530;SDS011;21637;53.352;-6.356;2023-03-21T00:54:15;4.68;;;0.70;;
35530;SDS011;21637;53.352;-6.356;2023-03-21T00:56:41;1.85;;;0.50;;
35530;SDS011;21637;53.352;-6.356;2023-03-21T00:59:07;3.42;;;0.70;;
35530;SDS011;21637;53.352;-6.356;2023-03-21T01:01:33;3.42;;;0.70;;
35530;SDS011;21637;53.352;-6.356;2023-03-21T01:03:59;3.40;;;0.65;;
35530;SDS011;21637;53.352;-6.356;2023-03-21T01:06:34;1.67;;;0.50;;
35530;SDS011;21637;53.352;-6.356;2023-03-21T01:11:32;3.42;;;0.70;;
35530;SDS011;21637;53.352;-6.356;2023-03-21T01:13:58;3.25;;;0.70;;
35530;SDS011;21637;53.352;-6.356;2023-03-21T01:16:25;4.85;;;1.00;;
35530;SDS011;21637;53.352;-6.356;2023-03-21T01:18:51;2.47;;;0.40;;
35530;SDS011;21637;53.352;-6.356;2023-03-21T01:21:17;4.82;;;0.98;;
35530;SDS011;21637;53.352;-6.356;2023-03-21T01:23:43;2.38;;;0.60;;
35530;SDS011;21637;53.352;-6.356;2023-03-21T01:26:09;1.88;;;0.60;;
35530;SDS011;21637;53.352;-6.356;2023-03-21T01:28:36;2.38;;;0.90;;
35530;SDS011;21637;53.352;-6.356;2023-03-21T01:31:03;3.10;;;0.60;;
35530;SDS011;21637;53.352;-6.356;2023-03-21T01:33:30;2.78;;;0.73;;
35530;SDS011;21637;53.352;-6.356;2023-03-21T01:35:57;2.25;;;0.80;;
35530;SDS011;21637;53.352;-6.356;2023-03-21T01:38:23;4.60;;;1.02;;
35530;SDS011;21637;53.352;-6.356;2023-03-21T01:40:50;4.30;;;0.93;;
35530;SDS011;21637;53.352;-6.356;2023-03-21T01:48:38;2.83;;;0.80;;
35530;SDS011;21637;53.352;-6.356;2023-03-21T01:51:06;1.98;;;1.05;;
35530;SDS011;21637;53.352;-6.356;2023-03-21T01:53:33;1.88;;;0.77;;
35530;SDS011;21637;53.352;-6.356;2023-03-21T01:56:03;3.08;;;0.88;;
35530;SDS011;21637;53.352;-6.356;2023-03-21T01:58:33;2.17;;;0.70;;
35530;SDS011;21637;53.352;-6.356;2023-03-21T02:01:01;4.03;;;1.00;;
35530;SDS011;21637;53.352;-6.356;2023-03-21T02:03:28;5.03;;;1.13;;
35530;SDS011;21637;53.352;-6.356;2023-03-21T02:06:03;3.13;;;0.88;;
35530;SDS011;21637;53.352;-6.356;2023-03-21T02:08:33;5.78;;;1.10;;
35530;SDS011;21637;53.352;-6.356;2023-03-21T02:10:59;5.32;;;0.93;;
35530;SDS011;21637;53.352;-6.356;2023-03-21T02:13:25;5.03;;;1.52;;
35530;SDS011;21637;53.352;-6.356;2023-03-21T02:16:01;5.75;;;1.48;;
35530;SDS011;21637;53.352;-6.356;2023-03-21T02:41:05;9.05;;;1.50;;
35530;SDS011;21637;53.352;-6.356;2023-03-21T02:43:37;6.35;;;1.10;;
35530;SDS011;21637;53.352;-6.356;2023-03-21T02:48:46;5.13;;;1.20;;
35530;SDS011;21637;53.352;-6.356;2023-03-21T02:51:21;8.68;;;1.75;;
35530;SDS011;21637;53.352;-6.356;2023-03-21T02:53:49;6.15;;;1.40;;
35530;SDS011;21637;53.352;-6.356;2023-03-21T02:56:20;9.30;;;1.65;;
35530;SDS011;21637;53.352;-6.356;2023-03-21T02:58:48;5.45;;;1.30;;
35530;SDS011;21637;53.352;-6.356;2023-03-21T03:01:15;5.85;;;1.35;;
35530;SDS011;21637;53.352;-6.356;2023-03-21T03:03:40;9.30;;;1.92;;
35530;SDS011;21637;53.352;-6.356;2023-03-21T03:06:09;8.50;;;1.52;;
35530;SDS011;21637;53.352;-6.356;2023-03-21T03:08:42;12.95;;;2.20;;
35530;SDS011;21637;53.352;-6.356;2023-03-21T03:16:42;8.90;;;1.38;;
35530;SDS011;21637;53.352;-6.356;2023-03-21T03:19:27;6.68;;;1.30;;
35530;SDS011;21637;53.352;-6.356;2023-03-21T03:21:58;7.50;;;1.08;;
35530;SDS011;21637;53.352;-6.356;2023-03-21T03:24:32;5.45;;;1.27;;
35530;SDS011;21637;53.352;-6.356;2023-03-21T03:27:03;6.25;;;0.98;;
35530;SDS011;21637;53.352;-6.356;2023-03-21T03:29:40;4.05;;;1.02;;
35530;SDS011;21637;53.352;-6.356;2023-03-21T03:32:15;4.65;;;1.13;;
35530;SDS011;21637;53.352;-6.356;2023-03-21T03:34:49;7.60;;;1.35;;
35530;SDS011;21637;53.352;-6.356;2023-03-21T03:37:21;5.90;;;1.48;;
35530;SDS011;21637;53.352;-6.356;2023-03-21T03:45:14;5.82;;;1.50;;
35530;SDS011;21637;53.352;-6.356;2023-03-21T03:47:43;4.53;;;1.13;;
35530;SDS011;21637;53.352;-6.356;2023-03-21T03:50:25;8.05;;;1.70;;
35530;SDS011;21637;53.352;-6.356;2023-03-21T03:55:53;3.88;;;1.27;;
35530;SDS011;21637;53.352;-6.356;2023-03-21T03:58:21;5.10;;;1.60;;
35530;SDS011;21637;53.352;-6.356;2023-03-21T04:00:48;4.97;;;1.08;;
35530;SDS011;21637;53.352;-6.356;2023-03-21T04:03:15;7.03;;;1.27;;
35530;SDS011;21637;53.352;-6.356;2023-03-21T04:05:41;9.35;;;1.92;;
35530;SDS011;21637;53.352;-6.356;2023-03-21T04:08:10;5.82;;;1.70;;
35530;SDS011;21637;53.352;-6.356;2023-03-21T04:10:38;7.28;;;1.52;;
35530;SDS011;21637;53.352;-6.356;2023-03-21T04:13:04;5.30;;;1.10;;
35530;SDS011;21637;53.352;-6.356;2023-03-21T04:15:30;9.75;;;1.75;;
35530;SDS011;21637;53.352;-6.356;2023-03-21T04:17:56;6.82;;;1.55;;
35530;SDS011;21637;53.352;-6.356;2023-03-21T04:20:22;6.00;;;1.45;;
35530;SDS011;21637;53.352;-6.356;2023-03-21T04:22:48;5.45;;;1.10;;
35530;SDS011;21637;53.352;-6.356;2023-03-21T04:25:13;5.65;;;1.15;;
35530;SDS011;21637;53.352;-6.356;2023-03-21T04:27:39;6.63;;;1.30;;
35530;SDS011;21637;53.352;-6.356;2023-03-21T04:30:05;6.72;;;1.42;;
35530;SDS011;21637;53.352;-6.356;2023-03-21T04:32:31;9.75;;;1.77;;
35530;SDS011;21637;53.352;-6.356;2023-03-21T04:34:58;7.60;;;1.85;;
35530;SDS011;21637;53.352;-6.356;2023-03-21T04:37:25;6.78;;;1.55;;
35530;SDS011;21637;53.352;-6.356;2023-03-21T04:39:51;9.38;;;2.00;;
35530;SDS011;21637;53.352;-6.356;2023-03-21T04:42:17;6.80;;;1.45;;
35530;SDS011;21637;53.352;-6.356;2023-03-21T04:44:44;5.18;;;1.17;;
35530;SDS011;21637;53.352;-6.356;2023-03-21T04:47:10;6.90;;;1.80;;
35530;SDS011;21637;53.352;-6.356;2023-03-21T04:49:37;10.07;;;1.90;;
35530;SDS011;21637;53.352;-6.356;2023-03-21T04:52:03;4.70;;;0.98;;
35530;SDS011;21637;53.352;-6.356;2023-03-21T04:54:29;3.45;;;1.10;;
35530;SDS011;21637;53.352;-6.356;2023-03-21T04:56:56;5.55;;;1.00;;
35530;SDS011;21637;53.352;-6.356;2023-03-21T04:59:22;4.30;;;0.85;;
35530;SDS011;21637;53.352;-6.356;2023-03-21T05:01:48;5.88;;;0.90;;
35530;SDS011;21637;53.352;-6.356;2023-03-21T05:04:15;4.63;;;1.00;;
35530;SDS011;21637;53.352;-6.356;2023-03-21T05:06:41;6.35;;;1.05;;
35530;SDS011;21637;53.352;-6.356;2023-03-21T05:09:08;4.25;;;0.77;;
35530;SDS011;21637;53.352;-6.356;2023-03-21T05:11:35;4.95;;;0.98;;
35530;SDS011;21637;53.352;-6.356;2023-03-21T05:14:03;3.65;;;0.90;;
35530;SDS011;21637;53.352;-6.356;2023-03-21T05:16:29;2.58;;;0.85;;
35530;SDS011;21637;53.352;-6.356;2023-03-21T05:18:55;3.33;;;0.75;;
35530;SDS011;21637;53.352;-6.356;2023-03-21T05:21:23;3.45;;;0.90;;
35530;SDS011;21637;53.352;-6.356;2023-03-21T05:23:53;1.85;;;0.60;;
35530;SDS011;21637;53.352;-6.356;2023-03-21T05:26:20;4.10;;;0.80;;
35530;SDS011;21637;53.352;-6.356;2023-03-21T05:28:47;2.88;;;1.05;;
35530;SDS011;21637;53.352;-6.356;2023-03-21T05:31:13;5.03;;;0.85;;
35530;SDS011;21637;53.352;-6.356;2023-03-21T05:33:44;4.18;;;0.70;;
35530;SDS011;21637;53.352;-6.356;2023-03-21T05:36:10;4.55;;;0.88;;
35530;SDS011;21637;53.352;-6.356;2023-03-21T05:38:37;2.65;;;0.70;;
35530;SDS011;21637;53.352;-6.356;2023-03-21T05:41:07;4.65;;;0.77;;
35530;SDS011;21637;53.352;-6.356;2023-03-21T05:43:32;4.85;;;0.80;;
35530;SDS011;21637;53.352;-6.356;2023-03-21T05:45:58;2.65;;;0.80;;
35530;SDS011;21637;53.352;-6.356;2023-03-21T05:48:24;4.72;;;0.77;;
35530;SDS011;21637;53.352;-6.356;2023-03-21T05:50:50;4.03;;;1.00;;
35530;SDS011;21637;53.352;-6.356;2023-03-21T05:53:17;2.83;;;0.93;;
35530;SDS011;21637;53.352;-6.356;2023-03-21T05:55:42;5.18;;;0.88;;
35530;SDS011;21637;53.352;-6.356;2023-03-21T05:58:08;3.90;;;0.50;;
35530;SDS011;21637;53.352;-6.356;2023-03-21T06:00:34;2.25;;;0.73;;
35530;SDS011;21637;53.352;-6.356;2023-03-21T06:03:00;2.88;;;0.70;;
35530;SDS011;21637;53.352;-6.356;2023-03-21T06:05:25;2.30;;;0.50;;
35530;SDS011;21637;53.352;-6.356;2023-03-21T06:07:51;3.97;;;0.90;;
35530;SDS011;21637;53.352;-6.356;2023-03-21T06:10:17;5.80;;;1.13;;
35530;SDS011;21637;53.352;-6.356;2023-03-21T06:12:43;3.80;;;0.85;;
35530;SDS011;21637;53.352;-6.356;2023-03-21T06:15:09;4.85;;;1.02;;
35530;SDS011;21637;53.352;-6.356;2023-03-21T06:17:35;2.90;;;0.75;;
35530;SDS011;21637;53.352;-6.356;2023-03-21T06:20:01;2.85;;;0.70;;
35530;SDS011;21637;53.352;-6.356;2023-03-21T06:22:29;5.13;;;1.45;;
35530;SDS011;21637;53.352;-6.356;2023-03-21T06:24:55;5.55;;;0.90;;
35530;SDS011;21637;53.352;-6.356;2023-03-21T06:27:21;4.03;;;1.08;;
35530;SDS011;21637;53.352;-6.356;2023-03-21T06:29:47;7.28;;;1.20;;
35530;SDS011;21637;53.352;-6.356;2023-03-21T06:32:13;2.75;;;0.93;;
35530;SDS011;21637;53.352;-6.356;2023-03-21T06:34:40;2.65;;;1.00;;
35530;SDS011;21637;53.352;-6.356;2023-03-21T06:37:06;5.35;;;1.40;;
35530;SDS011;21637;53.352;-6.356;2023-03-21T06:39:32;4.80;;;1.35;;
35530;SDS011;21637;53.352;-6.356;2023-03-21T06:41:58;5.43;;;1.30;;
35530;SDS011;21637;53.352;-6.356;2023-03-21T06:44:24;3.28;;;1.30;;
35530;SDS011;21637;53.352;-6.356;2023-03-21T06:46:50;7.28;;;1.58;;
35530;SDS011;21637;53.352;-6.356;2023-03-21T06:49:16;4.43;;;1.38;;
35530;SDS011;21637;53.352;-6.356;2023-03-21T06:51:42;4.22;;;1.60;;
35530;SDS011;21637;53.352;-6.356;2023-03-21T06:54:08;3.53;;;1.33;;
35530;SDS011;21637;53.352;-6.356;2023-03-21T06:56:34;3.30;;;1.15;;
35530;SDS011;21637;53.352;-6.356;2023-03-21T06:59:00;5.03;;;1.38;;
35530;SDS011;21637;53.352;-6.356;2023-03-21T07:01:26;4.47;;;1.30;;
35530;SDS011;21637;53.352;-6.356;2023-03-21T07:03:52;2.92;;;0.82;;
35530;SDS011;21637;53.352;-6.356;2023-03-21T07:06:20;5.45;;;0.88;;
35530;SDS011;21637;53.352;-6.356;2023-03-21T07:08:46;4.72;;;1.15;;
35530;SDS011;21637;53.352;-6.356;2023-03-21T07:11:12;4.68;;;1.15;;
35530;SDS011;21637;53.352;-6.356;2023-03-21T07:13:37;3.75;;;1.17;;
35530;SDS011;21637;53.352;-6.356;2023-03-21T07:16:03;2.97;;;1.20;;
35530;SDS011;21637;53.352;-6.356;2023-03-21T07:18:30;3.70;;;1.00;;
35530;SDS011;21637;53.352;-6.356;2023-03-21T07:20:56;4.20;;;1.20;;
35530;SDS011;21637;53.352;-6.356;2023-03-21T07:23:24;3.85;;;0.90;;
35530;SDS011;21637;53.352;-6.356;2023-03-21T07:25:51;4.20;;;0.75;;
35530;SDS011;21637;53.352;-6.356;2023-03-21T07:28:17;1.55;;;0.85;;
35530;SDS011;21637;53.352;-6.356;2023-03-21T07:30:43;2.10;;;0.68;;
35530;SDS011;21637;53.352;-6.356;2023-03-21T07:33:10;1.95;;;1.00;;
35530;SDS011;21637;53.352;-6.356;2023-03-21T07:35:37;2.75;;;1.02;;
35530;SDS011;21637;53.352;-6.356;2023-03-21T07:38:03;2.28;;;1.00;;
35530;SDS011;21637;53.352;-6.356;2023-03-21T07:40:30;3.45;;;1.20;;
35530;SDS011;21637;53.352;-6.356;2023-03-21T07:42:56;2.88;;;1.35;;
35530;SDS011;21637;53.352;-6.356;2023-03-21T07:45:22;4.72;;;1.70;;
35530;SDS011;21637;53.352;-6.356;2023-03-21T07:47:49;3.50;;;1.17;;
35530;SDS011;21637;53.352;-6.356;2023-03-21T07:50:15;4.30;;;1.20;;
35530;SDS011;21637;53.352;-6.356;2023-03-21T07:52:41;2.65;;;1.27;;
35530;SDS011;21637;53.352;-6.356;2023-03-21T07:55:08;2.90;;;1.55;;
35530;SDS011;21637;53.352;-6.356;2023-03-21T07:57:34;2.22;;;1.38;;
35530;SDS011;21637;53.352;-6.356;2023-03-21T08:00:00;5.32;;;1.23;;
35530;SDS011;21637;53.352;-6.356;2023-03-21T08:02:27;2.35;;;1.00;;
35530;SDS011;21637;53.352;-6.356;2023-03-21T08:04:53;3.63;;;1.17;;
35530;SDS011;21637;53.352;-6.356;2023-03-21T08:07:18;7.68;;;1.05;;
35530;SDS011;21637;53.352;-6.356;2023-03-21T08:09:44;2.88;;;1.23;;
35530;SDS011;21637;53.352;-6.356;2023-03-21T08:12:10;2.83;;;1.05;;
35530;SDS011;21637;53.352;-6.356;2023-03-21T08:14:36;2.13;;;0.95;;
35530;SDS011;21637;53.352;-6.356;2023-03-21T08:17:02;3.45;;;1.48;;
35530;SDS011;21637;53.352;-6.356;2023-03-21T08:19:29;5.95;;;1.50;;
35530;SDS011;21637;53.352;-6.356;2023-03-21T08:21:55;6.15;;;1.60;;
35530;SDS011;21637;53.352;-6.356;2023-03-21T08:24:24;4.65;;;1.40;;
35530;SDS011;21637;53.352;-6.356;2023-03-21T08:26:50;6.00;;;1.40;;
35530;SDS011;21637;53.352;-6.356;2023-03-21T08:29:16;4.90;;;1.20;;
35530;SDS011;21637;53.352;-6.356;2023-03-21T08:31:42;3.40;;;1.00;;
35530;SDS011;21637;53.352;-6.356;2023-03-21T08:34:07;3.78;;;0.93;;
35530;SDS011;21637;53.352;-6.356;2023-03-21T08:36:36;4.60;;;1.25;;
35530;SDS011;21637;53.352;-6.356;2023-03-21T08:39:03;5.40;;;0.98;;
35530;SDS011;21637;53.352;-6.356;2023-03-21T08:41:30;4.00;;;0.98;;
35530;SDS011;21637;53.352;-6.356;2023-03-21T08:44:00;4.50;;;1.02;;
35530;SDS011;21637;53.352;-6.356;2023-03-21T08:46:26;3.67;;;1.15;;
35530;SDS011;21637;53.352;-6.356;2023-03-21T08:48:52;3.00;;;0.80;;
35530;SDS011;21637;53.352;-6.356;2023-03-21T08:51:18;4.50;;;0.73;;
35530;SDS011;21637;53.352;-6.356;2023-03-21T08:53:44;5.40;;;0.80;;
35530;SDS011;21637;53.352;-6.356;2023-03-21T08:56:10;2.20;;;0.70;;
35530;SDS011;21637;53.352;-6.356;2023-03-21T08:58:36;9.07;;;1.20;;
35530;SDS011;21637;53.352;-6.356;2023-03-21T09:01:03;3.70;;;1.00;;
35530;SDS011;21637;53.352;-6.356;2023-03-21T09:03:30;5.82;;;1.25;;
35530;SDS011;21637;53.352;-6.356;2023-03-21T09:05:56;5.75;;;1.30;;
35530;SDS011;21637;53.352;-6.356;2023-03-21T09:08:23;4.85;;;0.98;;
35530;SDS011;21637;53.352;-6.356;2023-03-21T09:10:51;3.00;;;1.00;;
35530;SDS011;21637;53.352;-6.356;2023-03-21T09:13:18;7.57;;;1.00;;
35530;SDS011;21637;53.352;-6.356;2023-03-21T09:15:43;3.72;;;0.82;;
35530;SDS011;21637;53.352;-6.356;2023-03-21T09:18:09;5.82;;;1.20;;
35530;SDS011;21637;53.352;-6.356;2023-03-21T09:20:42;7.65;;;1.02;;
35530;SDS011;21637;53.352;-6.356;2023-03-21T09:23:09;2.97;;;1.13;;
35530;SDS011;21637;53.352;-6.356;2023-03-21T09:25:36;6.28;;;1.00;;
35530;SDS011;21637;53.352;-6.356;2023-03-21T09:28:02;3.13;;;0.90;;
35530;SDS011;21637;53.352;-6.356;2023-03-21T09:30:30;4.68;;;0.93;;
35530;SDS011;21637;53.352;-6.356;2023-03-21T09:33:00;6.07;;;0.80;;
35530;SDS011;21637;53.352;-6.356;2023-03-21T09:35:30;4.40;;;1.30;;
35530;SDS011;21637;53.352;-6.356;2023-03-21T09:37:56;6.10;;;1.13;;
35530;SDS011;21637;53.352;-6.356;2023-03-21T09:48:50;3.80;;;1.10;;
35530;SDS011;21637;53.352;-6.356;2023-03-21T09:51:28;4.57;;;0.90;;
35530;SDS011;21637;53.352;-6.356;2023-03-21T09:54:00;6.93;;;1.20;;
35530;SDS011;21637;53.352;-6.356;2023-03-21T09:56:31;6.57;;;1.10;;
35530;SDS011;21637;53.352;-6.356;2023-03-21T09:58:58;6.45;;;1.08;;
35530;SDS011;21637;53.352;-6.356;2023-03-21T10:01:26;8.88;;;1.63;;
35530;SDS011;21637;53.352;-6.356;2023-03-21T10:03:58;4.82;;;1.80;;
35530;SDS011;21637;53.352;-6.356;2023-03-21T10:06:29;5.28;;;0.90;;
35530;SDS011;21637;53.352;-6.356;2023-03-21T10:08:59;6.70;;;1.27;;
35530;SDS011;21637;53.352;-6.356;2023-03-21T10:14:42;11.55;;;1.30;;
35530;SDS011;21637;53.352;-6.356;2023-03-21T10:17:14;3.63;;;0.90;;
35530;SDS011;21637;53.352;-6.356;2023-03-21T10:23:06;7.22;;;1.30;;
35530;SDS011;21637;53.352;-6.356;2023-03-21T10:25:40;4.15;;;0.98;;
35530;SDS011;21637;53.352;-6.356;2023-03-21T10:28:23;5.00;;;1.33;;
35530;SDS011;21637;53.352;-6.356;2023-03-21T10:30:53;5.55;;;1.30;;
35530;SDS011;21637;53.352;-6.356;2023-03-21T10:33:26;3.63;;;1.17;;
35530;SDS011;21637;53.352;-6.356;2023-03-21T10:36:00;4.18;;;0.82;;
35530;SDS011;21637;53.352;-6.356;2023-03-21T10:38:29;4.63;;;1.08;;
35530;SDS011;21637;53.352;-6.356;2023-03-21T10:40:55;4.20;;;0.93;;
35530;SDS011;21637;53.352;-6.356;2023-03-21T10:45:55;7.03;;;1.20;;
35530;SDS011;21637;53.352;-6.356;2023-03-21T10:48:22;4.95;;;0.80;;
35530;SDS011;21637;53.352;-6.356;2023-03-21T10:50:49;3.17;;;0.80;;
35530;SDS011;21637;53.352;-6.356;2023-03-21T10:53:22;4.75;;;0.90;;
35530;SDS011;21637;53.352;-6.356;2023-03-21T10:55:55;1.92;;;0.80;;
35530;SDS011;21637;53.352;-6.356;2023-03-21T10:58:27;1.50;;;0.38;;
35530;SDS011;21637;53.352;-6.356;2023-03-21T11:00:59;2.28;;;0.47;;
35530;SDS011;21637;53.352;-6.356;2023-03-21T11:03:29;5.93;;;0.85;;
35530;SDS011;21637;53.352;-6.356;2023-03-21T11:06:00;3.28;;;0.70;;
35530;SDS011;21637;53.352;-6.356;2023-03-21T11:08:29;6.10;;;0.95;;
35530;SDS011;21637;53.352;-6.356;2023-03-21T11:11:05;3.67;;;0.50;;
35530;SDS011;21637;53.352;-6.356;2023-03-21T11:13:37;3.42;;;0.70;;
35530;SDS011;21637;53.352;-6.356;2023-03-21T11:16:06;0.83;;;0.20;;
35530;SDS011;21637;53.352;-6.356;2023-03-21T11:18:40;4.38;;;0.80;;
35530;SDS011;21637;53.352;-6.356;2023-03-21T11:21:08;4.50;;;0.43;;
35530;SDS011;21637;53.352;-6.356;2023-03-21T11:23:37;5.05;;;0.35;;
35530;SDS011;21637;53.352;-6.356;2023-03-21T11:26:24;4.60;;;0.68;;
35530;SDS011;21637;53.352;-6.356;2023-03-21T11:28:55;3.05;;;0.50;;
35530;SDS011;21637;53.352;-6.356;2023-03-21T11:31:21;5.07;;;0.70;;
35530;SDS011;21637;53.352;-6.356;2023-03-21T11:34:01;2.20;;;0.70;;
35530;SDS011;21637;53.352;-6.356;2023-03-21T11:36:35;2.10;;;0.60;;
35530;SDS011;21637;53.352;-6.356;2023-03-21T11:41:48;4.35;;;0.32;;
35530;SDS011;21637;53.352;-6.356;2023-03-21T11:44:32;4.78;;;0.40;;
35530;SDS011;21637;53.352;-6.356;2023-03-21T11:47:07;2.67;;;0.40;;
35530;SDS011;21637;53.352;-6.356;2023-03-21T11:49:34;1.17;;;0.30;;
35530;SDS011;21637;53.352;-6.356;2023-03-21T11:52:17;5.88;;;0.52;;
35530;SDS011;21637;53.352;-6.356;2023-03-21T11:54:59;0.93;;;0.40;;
35530;SDS011;21637;53.352;-6.356;2023-03-21T12:00:23;2.47;;;0.50;;
35530;SDS011;21637;53.352;-6.356;2023-03-21T12:05:29;6.05;;;0.77;;
35530;SDS011;21637;53.352;-6.356;2023-03-21T12:10:42;4.35;;;0.80;;
35530;SDS011;21637;53.352;-6.356;2023-03-21T12:18:48;3.60;;;0.75;;
35530;SDS011;21637;53.352;-6.356;2023-03-21T12:24:07;3.65;;;0.55;;
35530;SDS011;21637;53.352;-6.356;2023-03-21T12:37:31;5.43;;;0.65;;
35530;SDS011;21637;53.352;-6.356;2023-03-21T12:40:16;1.77;;;0.40;;
35530;SDS011;21637;53.352;-6.356;2023-03-21T12:45:33;2.15;;;0.52;;
35530;SDS011;21637;53.352;-6.356;2023-03-21T12:48:15;3.15;;;0.77;;
35530;SDS011;21637;53.352;-6.356;2023-03-21T12:50:50;4.65;;;0.95;;
35530;SDS011;21637;53.352;-6.356;2023-03-21T12:53:42;2.28;;;0.50;;
35530;SDS011;21637;53.352;-6.356;2023-03-21T12:56:39;5.78;;;1.30;;
35530;SDS011;21637;53.352;-6.356;2023-03-21T13:01:30;4.53;;;0.80;;
35530;SDS011;21637;53.352;-6.356;2023-03-21T13:04:05;5.63;;;1.20;;
35530;SDS011;21637;53.352;-6.356;2023-03-21T13:06:39;4.03;;;0.73;;
35530;SDS011;21637;53.352;-6.356;2023-03-21T13:09:08;3.65;;;0.80;;
35530;SDS011;21637;53.352;-6.356;2023-03-21T13:11:40;4.00;;;0.93;;
35530;SDS011;21637;53.352;-6.356;2023-03-21T13:17:28;3.40;;;1.40;;
35530;SDS011;21637;53.352;-6.356;2023-03-21T13:24:49;11.43;;;1.42;;
35530;SDS011;21637;53.352;-6.356;2023-03-21T13:32:28;6.07;;;1.10;;
35530;SDS011;21637;53.352;-6.356;2023-03-21T13:34:58;6.57;;;1.40;;
35530;SDS011;21637;53.352;-6.356;2023-03-21T13:37:38;8.75;;;1.33;;
35530;SDS011;21637;53.352;-6.356;2023-03-21T13:40:07;7.90;;;1.60;;
35530;SDS011;21637;53.352;-6.356;2023-03-21T13:42:51;6.80;;;1.60;;
35530;SDS011;21637;53.352;-6.356;2023-03-21T13:45:28;22.38;;;2.88;;
35530;SDS011;21637;53.352;-6.356;2023-03-21T13:48:00;6.70;;;1.80;;
35530;SDS011;21637;53.352;-6.356;2023-03-21T13:50:33;11.82;;;2.05;;
35530;SDS011;21637;53.352;-6.356;2023-03-21T13:55:43;14.07;;;2.40;;
35530;SDS011;21637;53.352;-6.356;2023-03-21T13:58:23;18.38;;;2.83;;
35530;SDS011;21637;53.352;-6.356;2023-03-21T14:03:46;10.80;;;2.17;;
35530;SDS011;21637;53.352;-6.356;2023-03-21T14:06:12;12.15;;;2.45;;
35530;SDS011;21637;53.352;-6.356;2023-03-21T14:08:39;24.20;;;3.22;;
35530;SDS011;21637;53.352;-6.356;2023-03-21T14:11:11;15.57;;;2.50;;
35530;SDS011;21637;53.352;-6.356;2023-03-21T14:13:41;20.33;;;3.13;;
35530;SDS011;21637;53.352;-6.356;2023-03-21T14:16:14;20.10;;;2.50;;
35530;SDS011;21637;53.352;-6.356;2023-03-21T14:18:46;13.60;;;2.58;;
35530;SDS011;21637;53.352;-6.356;2023-03-21T14:21:21;16.30;;;2.40;;
35530;SDS011;21637;53.352;-6.356;2023-03-21T14:23:59;7.47;;;1.93;;
35530;SDS011;21637;53.352;-6.356;2023-03-21T14:26:34;9.95;;;2.20;;
35530;SDS011;21637;53.352;-6.356;2023-03-21T14:29:06;10.35;;;1.67;;
35530;SDS011;21637;53.352;-6.356;2023-03-21T14:31:44;19.15;;;2.80;;
35530;SDS011;21637;53.352;-6.356;2023-03-21T14:34:11;10.38;;;2.13;;
35530;SDS011;21637;53.352;-6.356;2023-03-21T14:36:39;8.07;;;1.98;;
35530;SDS011;21637;53.352;-6.356;2023-03-21T14:39:17;12.75;;;2.72;;
35530;SDS011;21637;53.352;-6.356;2023-03-21T14:44:34;10.88;;;1.90;;
35530;SDS011;21637;53.352;-6.356;2023-03-21T14:47:08;13.10;;;2.25;;
35530;SDS011;21637;53.352;-6.356;2023-03-21T14:49:48;12.27;;;2.45;;
35530;SDS011;21637;53.352;-6.356;2023-03-21T14:52:25;12.35;;;2.53;;
35530;SDS011;21637;53.352;-6.356;2023-03-21T14:54:55;6.40;;;2.08;;
35530;SDS011;21637;53.352;-6.356;2023-03-21T14:57:22;12.18;;;2.75;;
35530;SDS011;21637;53.352;-6.356;2023-03-21T14:59:53;10.55;;;2.55;;
35530;SDS011;21637;53.352;-6.356;2023-03-21T15:02:22;10.55;;;2.78;;
35530;SDS011;21637;53.352;-6.356;2023-03-21T15:04:56;8.30;;;2.33;;
35530;SDS011;21637;53.352;-6.356;2023-03-21T15:07:31;18.00;;;2.53;;
35530;SDS011;21637;53.352;-6.356;2023-03-21T15:10:05;12.70;;;2.35;;
35530;SDS011;21637;53.352;-6.356;2023-03-21T15:12:51;10.57;;;3.20;;
35530;SDS011;21637;53.352;-6.356;2023-03-21T15:15:18;7.50;;;1.70;;
35530;SDS011;21637;53.352;-6.356;2023-03-21T15:17:45;11.05;;;2.80;;
35530;SDS011;21637;53.352;-6.356;2023-03-21T15:20:13;8.60;;;2.30;;
35530;SDS011;21637;53.352;-6.356;2023-03-21T15:22:40;7.80;;;1.83;;
35530;SDS011;21637;53.352;-6.356;2023-03-21T15:25:12;5.95;;;1.83;;
35530;SDS011;21637;53.352;-6.356;2023-03-21T15:27:44;6.93;;;1.83;;
35530;SDS011;21637;53.352;-6.356;2023-03-21T15:30:28;5.60;;;1.30;;
35530;SDS011;21637;53.352;-6.356;2023-03-21T15:35:26;5.35;;;1.55;;
35530;SDS011;21637;53.352;-6.356;2023-03-21T15:43:46;4.53;;;1.40;;
35530;SDS011;21637;53.352;-6.356;2023-03-21T15:51:46;4.72;;;1.30;;
35530;SDS011;21637;53.352;-6.356;2023-03-21T15:54:17;6.15;;;1.50;;
35530;SDS011;21637;53.352;-6.356;2023-03-21T15:57:00;3.50;;;0.90;;
35530;SDS011;21637;53.352;-6.356;2023-03-21T15:59:34;3.63;;;1.38;;
35530;SDS011;21637;53.352;-6.356;2023-03-21T16:02:03;5.88;;;1.38;;
35530;SDS011;21637;53.352;-6.356;2023-03-21T16:07:27;5.80;;;1.63;;
35530;SDS011;21637;53.352;-6.356;2023-03-21T16:09:58;3.92;;;1.30;;
35530;SDS011;21637;53.352;-6.356;2023-03-21T16:12:25;6.20;;;1.90;;
35530;SDS011;21637;53.352;-6.356;2023-03-21T16:14:51;4.50;;;1.35;;
35530;SDS011;21637;53.352;-6.356;2023-03-21T16:17:26;2.17;;;0.88;;
35530;SDS011;21637;53.352;-6.356;2023-03-21T16:19:57;4.78;;;1.33;;
35530;SDS011;21637;53.352;-6.356;2023-03-21T16:22:23;2.75;;;0.80;;
35530;SDS011;21637;53.352;-6.356;2023-03-21T16:24:49;5.88;;;1.70;;
35530;SDS011;21637;53.352;-6.356;2023-03-21T16:27:15;5.93;;;1.42;;
35530;SDS011;21637;53.352;-6.356;2023-03-21T16:29:42;4.57;;;2.05;;
35530;SDS011;21637;53.352;-6.356;2023-03-21T16:32:11;6.47;;;2.40;;
35530;SDS011;21637;53.352;-6.356;2023-03-21T16:34:40;6.90;;;2.13;;
35530;SDS011;21637;53.352;-6.356;2023-03-21T16:37:09;6.60;;;2.42;;
35530;SDS011;21637;53.352;-6.356;2023-03-21T16:39:36;8.82;;;4.95;;
35530;SDS011;21637;53.352;-6.356;2023-03-21T16:42:02;6.18;;;2.72;;
35530;SDS011;21637;53.352;-6.356;2023-03-21T16:44:28;6.38;;;2.70;;
35530;SDS011;21637;53.352;-6.356;2023-03-21T16:46:54;4.03;;;2.22;;
35530;SDS011;21637;53.352;-6.356;2023-03-21T16:49:23;5.57;;;2.50;;
35530;SDS011;21637;53.352;-6.356;2023-03-21T16:51:51;10.82;;;4.95;;
35530;SDS011;21637;53.352;-6.356;2023-03-21T16:54:17;11.85;;;5.90;;
35530;SDS011;21637;53.352;-6.356;2023-03-21T16:56:47;4.88;;;1.95;;
35530;SDS011;21637;53.352;-6.356;2023-03-21T16:59:15;9.73;;;4.10;;
35530;SDS011;21637;53.352;-6.356;2023-03-21T17:01:42;6.75;;;2.60;;